sensor_id;sensor_type;location;lat;lon;timestamp;P1;durP1;ratioP1;P2;durP2;ratioP2
10565;SDS011;5331;48.148;16.326;2022-08-07T00:02:08;4.03;;;3.72;;
10565;SDS011;5331;48.148;16.326;2022-08-07T00:04:34;3.60;;;3.30;;
10565;SDS011;5331;48.148;16.326;2022-08-07T00:07:03;3.70;;;3.45;;
10565;SDS011;5331;48.148;16.326;2022-08-07T00:09:30;3.60;;;3.40;;
10565;SDS011;5331;48.148;16.326;2022-08-07T00:11:57;3.88;;;3.58;;
10565;SDS011;5331;48.148;16.326;2022-08-07T00:14:24;3.55;;;3.25;;
10565;SDS011;5331;48.148;16.326;2022-08-07T00:16:54;3.95;;;3.35;;
10565;SDS011;5331;48.148;16.326;2022-08-07T00:19:21;3.70;;;3.38;;
10565;SDS011;5331;48.148;16.326;2022-08-07T00:21:48;3.65;;;3.35;;
10565;SDS011;5331;48.148;16.326;2022-08-07T00:24:16;3.55;;;3.35;;
10565;SDS011;5331;48.148;16.326;2022-08-07T00:26:43;3.60;;;3.40;;
10565;SDS011;5331;48.148;16.326;2022-08-07T00:29:10;3.22;;;3.00;;
10565;SDS011;5331;48.148;16.326;2022-08-07T00:31:37;3.35;;;3.15;;
10565;SDS011;5331;48.148;16.326;2022-08-07T00:34:04;3.20;;;3.00;;
10565;SDS011;5331;48.148;16.326;2022-08-07T00:36:31;3.63;;;3.38;;
10565;SDS011;5331;48.148;16.326;2022-08-07T00:38:58;3.60;;;3.30;;
10565;SDS011;5331;48.148;16.326;2022-08-07T00:41:27;3.47;;;3.22;;
10565;SDS011;5331;48.148;16.326;2022-08-07T00:43:57;3.35;;;3.15;;
10565;SDS011;5331;48.148;16.326;2022-08-07T00:46:24;3.35;;;3.15;;
10565;SDS011;5331;48.148;16.326;2022-08-07T00:48:51;4.10;;;3.10;;
10565;SDS011;5331;48.148;16.326;2022-08-07T00:51:18;3.47;;;3.17;;
10565;SDS011;5331;48.148;16.326;2022-08-07T00:53:45;3.45;;;3.25;;
10565;SDS011;5331;48.148;16.326;2022-08-07T00:56:12;3.15;;;3.00;;
10565;SDS011;5331;48.148;16.326;2022-08-07T00:58:41;4.00;;;3.20;;
10565;SDS011;5331;48.148;16.326;2022-08-07T01:01:09;3.33;;;3.10;;
10565;SDS011;5331;48.148;16.326;2022-08-07T01:03:36;3.17;;;2.97;;
10565;SDS011;5331;48.148;16.326;2022-08-07T01:06:03;3.22;;;2.97;;
10565;SDS011;5331;48.148;16.326;2022-08-07T01:08:30;3.40;;;3.20;;
10565;SDS011;5331;48.148;16.326;2022-08-07T01:10:57;3.10;;;2.90;;
10565;SDS011;5331;48.148;16.326;2022-08-07T01:13:25;3.53;;;3.33;;
10565;SDS011;5331;48.148;16.326;2022-08-07T01:15:53;3.20;;;3.00;;
10565;SDS011;5331;48.148;16.326;2022-08-07T01:18:22;6.07;;;3.25;;
10565;SDS011;5331;48.148;16.326;2022-08-07T01:20:52;2.90;;;2.70;;
10565;SDS011;5331;48.148;16.326;2022-08-07T01:23:23;3.40;;;3.10;;
10565;SDS011;5331;48.148;16.326;2022-08-07T01:25:50;3.20;;;3.03;;
10565;SDS011;5331;48.148;16.326;2022-08-07T01:28:17;3.22;;;3.03;;
10565;SDS011;5331;48.148;16.326;2022-08-07T01:30:44;3.55;;;3.25;;
10565;SDS011;5331;48.148;16.326;2022-08-07T01:33:12;3.20;;;3.00;;
10565;SDS011;5331;48.148;16.326;2022-08-07T01:35:39;3.50;;;3.05;;
10565;SDS011;5331;48.148;16.326;2022-08-07T01:38:06;3.15;;;3.05;;
10565;SDS011;5331;48.148;16.326;2022-08-07T01:40:35;3.85;;;2.97;;
10565;SDS011;5331;48.148;16.326;2022-08-07T01:43:03;2.85;;;2.72;;
10565;SDS011;5331;48.148;16.326;2022-08-07T01:45:30;3.10;;;2.90;;
10565;SDS011;5331;48.148;16.326;2022-08-07T01:47:57;3.13;;;2.92;;
10565;SDS011;5331;48.148;16.326;2022-08-07T01:50:24;3.30;;;3.00;;
10565;SDS011;5331;48.148;16.326;2022-08-07T01:52:53;2.95;;;2.70;;
10565;SDS011;5331;48.148;16.326;2022-08-07T01:55:23;3.10;;;2.90;;
10565;SDS011;5331;48.148;16.326;2022-08-07T01:57:54;2.92;;;2.75;;
10565;SDS011;5331;48.148;16.326;2022-08-07T02:00:24;3.20;;;3.00;;
10565;SDS011;5331;48.148;16.326;2022-08-07T02:02:55;3.25;;;3.00;;
10565;SDS011;5331;48.148;16.326;2022-08-07T02:05:29;3.25;;;3.05;;
10565;SDS011;5331;48.148;16.326;2022-08-07T02:07:59;3.30;;;3.10;;
10565;SDS011;5331;48.148;16.326;2022-08-07T02:10:28;3.30;;;3.00;;
10565;SDS011;5331;48.148;16.326;2022-08-07T02:12:58;3.20;;;3.00;;
10565;SDS011;5331;48.148;16.326;2022-08-07T02:15:27;3.30;;;3.10;;
10565;SDS011;5331;48.148;16.326;2022-08-07T02:17:56;3.00;;;2.80;;
10565;SDS011;5331;48.148;16.326;2022-08-07T02:20:24;3.15;;;2.95;;
10565;SDS011;5331;48.148;16.326;2022-08-07T02:22:52;3.33;;;3.10;;
10565;SDS011;5331;48.148;16.326;2022-08-07T02:25:23;3.45;;;3.15;;
10565;SDS011;5331;48.148;16.326;2022-08-07T02:27:51;3.40;;;3.00;;
10565;SDS011;5331;48.148;16.326;2022-08-07T02:30:19;3.30;;;3.10;;
10565;SDS011;5331;48.148;16.326;2022-08-07T02:32:46;3.05;;;2.92;;
10565;SDS011;5331;48.148;16.326;2022-08-07T02:35:14;3.10;;;2.90;;
10565;SDS011;5331;48.148;16.326;2022-08-07T02:37:43;3.03;;;2.83;;
10565;SDS011;5331;48.148;16.326;2022-08-07T02:40:11;3.20;;;3.00;;
10565;SDS011;5331;48.148;16.326;2022-08-07T02:42:39;3.30;;;3.10;;
10565;SDS011;5331;48.148;16.326;2022-08-07T02:45:07;3.00;;;2.80;;
10565;SDS011;5331;48.148;16.326;2022-08-07T02:47:39;2.90;;;2.75;;
10565;SDS011;5331;48.148;16.326;2022-08-07T02:50:07;3.30;;;3.10;;
10565;SDS011;5331;48.148;16.326;2022-08-07T02:52:40;2.85;;;2.70;;
10565;SDS011;5331;48.148;16.326;2022-08-07T02:55:10;3.55;;;2.90;;
10565;SDS011;5331;48.148;16.326;2022-08-07T02:57:40;2.90;;;2.70;;
10565;SDS011;5331;48.148;16.326;2022-08-07T03:00:10;3.10;;;2.80;;
10565;SDS011;5331;48.148;16.326;2022-08-07T03:02:40;3.30;;;3.00;;
10565;SDS011;5331;48.148;16.326;2022-08-07T03:05:11;3.13;;;2.92;;
10565;SDS011;5331;48.148;16.326;2022-08-07T03:07:39;3.00;;;2.90;;
10565;SDS011;5331;48.148;16.326;2022-08-07T03:10:07;4.05;;;3.22;;
10565;SDS011;5331;48.148;16.326;2022-08-07T03:12:34;3.10;;;2.85;;
10565;SDS011;5331;48.148;16.326;2022-08-07T03:15:02;3.08;;;2.88;;
10565;SDS011;5331;48.148;16.326;2022-08-07T03:17:31;3.30;;;3.10;;
10565;SDS011;5331;48.148;16.326;2022-08-07T03:20:03;3.10;;;2.90;;
10565;SDS011;5331;48.148;16.326;2022-08-07T03:22:30;3.15;;;2.95;;
10565;SDS011;5331;48.148;16.326;2022-08-07T03:24:58;3.05;;;2.85;;
10565;SDS011;5331;48.148;16.326;2022-08-07T03:27:25;3.40;;;3.15;;
10565;SDS011;5331;48.148;16.326;2022-08-07T03:29:53;3.05;;;2.85;;
10565;SDS011;5331;48.148;16.326;2022-08-07T03:32:23;3.10;;;2.90;;
10565;SDS011;5331;48.148;16.326;2022-08-07T03:34:53;3.33;;;3.03;;
10565;SDS011;5331;48.148;16.326;2022-08-07T03:37:25;3.10;;;2.90;;
10565;SDS011;5331;48.148;16.326;2022-08-07T03:39:54;3.33;;;3.00;;
10565;SDS011;5331;48.148;16.326;2022-08-07T03:42:22;3.22;;;2.88;;
10565;SDS011;5331;48.148;16.326;2022-08-07T03:44:50;3.28;;;2.97;;
10565;SDS011;5331;48.148;16.326;2022-08-07T03:47:17;3.03;;;2.83;;
10565;SDS011;5331;48.148;16.326;2022-08-07T03:49:45;3.45;;;3.22;;
10565;SDS011;5331;48.148;16.326;2022-08-07T03:52:13;2.90;;;2.70;;
10565;SDS011;5331;48.148;16.326;2022-08-07T03:54:41;3.10;;;2.90;;
10565;SDS011;5331;48.148;16.326;2022-08-07T03:57:08;3.38;;;3.00;;
10565;SDS011;5331;48.148;16.326;2022-08-07T03:59:37;3.38;;;2.90;;
10565;SDS011;5331;48.148;16.326;2022-08-07T04:02:05;3.03;;;2.80;;
10565;SDS011;5331;48.148;16.326;2022-08-07T04:04:33;3.25;;;3.03;;
10565;SDS011;5331;48.148;16.326;2022-08-07T04:07:00;3.10;;;2.90;;
10565;SDS011;5331;48.148;16.326;2022-08-07T04:09:28;3.42;;;3.00;;
10565;SDS011;5331;48.148;16.326;2022-08-07T04:11:58;3.22;;;3.00;;
10565;SDS011;5331;48.148;16.326;2022-08-07T04:14:25;3.20;;;3.00;;
10565;SDS011;5331;48.148;16.326;2022-08-07T04:16:53;3.50;;;2.90;;
10565;SDS011;5331;48.148;16.326;2022-08-07T04:19:20;3.20;;;3.00;;
10565;SDS011;5331;48.148;16.326;2022-08-07T04:21:49;3.30;;;2.97;;
10565;SDS011;5331;48.148;16.326;2022-08-07T04:24:16;3.00;;;2.78;;
10565;SDS011;5331;48.148;16.326;2022-08-07T04:26:44;2.92;;;2.72;;
10565;SDS011;5331;48.148;16.326;2022-08-07T04:29:13;3.10;;;2.90;;
10565;SDS011;5331;48.148;16.326;2022-08-07T04:31:40;4.20;;;2.92;;
10565;SDS011;5331;48.148;16.326;2022-08-07T04:34:07;2.90;;;2.70;;
10565;SDS011;5331;48.148;16.326;2022-08-07T04:36:34;2.85;;;2.65;;
10565;SDS011;5331;48.148;16.326;2022-08-07T04:39:02;2.85;;;2.65;;
10565;SDS011;5331;48.148;16.326;2022-08-07T04:41:30;2.97;;;2.78;;
10565;SDS011;5331;48.148;16.326;2022-08-07T04:43:57;2.70;;;2.60;;
10565;SDS011;5331;48.148;16.326;2022-08-07T04:46:29;3.00;;;2.70;;
10565;SDS011;5331;48.148;16.326;2022-08-07T04:49:02;3.15;;;2.95;;
10565;SDS011;5331;48.148;16.326;2022-08-07T04:51:36;3.30;;;3.00;;
10565;SDS011;5331;48.148;16.326;2022-08-07T04:54:15;3.08;;;2.90;;
10565;SDS011;5331;48.148;16.326;2022-08-07T04:56:49;3.00;;;2.80;;
10565;SDS011;5331;48.148;16.326;2022-08-07T04:59:25;2.95;;;2.75;;
10565;SDS011;5331;48.148;16.326;2022-08-07T05:02:01;3.90;;;3.10;;
10565;SDS011;5331;48.148;16.326;2022-08-07T05:04:37;3.10;;;2.90;;
10565;SDS011;5331;48.148;16.326;2022-08-07T05:07:11;2.88;;;2.50;;
10565;SDS011;5331;48.148;16.326;2022-08-07T05:09:43;3.10;;;2.90;;
10565;SDS011;5331;48.148;16.326;2022-08-07T05:12:29;3.03;;;2.70;;
10565;SDS011;5331;48.148;16.326;2022-08-07T05:15:02;2.92;;;2.72;;
10565;SDS011;5331;48.148;16.326;2022-08-07T05:17:43;3.22;;;2.92;;
10565;SDS011;5331;48.148;16.326;2022-08-07T05:20:13;3.05;;;2.85;;
10565;SDS011;5331;48.148;16.326;2022-08-07T05:22:45;3.50;;;3.20;;
10565;SDS011;5331;48.148;16.326;2022-08-07T05:25:17;3.08;;;2.88;;
10565;SDS011;5331;48.148;16.326;2022-08-07T05:27:46;3.17;;;2.85;;
10565;SDS011;5331;48.148;16.326;2022-08-07T05:30:15;2.85;;;2.65;;
10565;SDS011;5331;48.148;16.326;2022-08-07T05:32:45;3.20;;;3.00;;
10565;SDS011;5331;48.148;16.326;2022-08-07T05:35:13;2.85;;;2.65;;
10565;SDS011;5331;48.148;16.326;2022-08-07T05:37:42;3.08;;;2.78;;
10565;SDS011;5331;48.148;16.326;2022-08-07T05:40:11;4.60;;;2.78;;
10565;SDS011;5331;48.148;16.326;2022-08-07T05:42:38;2.92;;;2.70;;
10565;SDS011;5331;48.148;16.326;2022-08-07T05:45:06;3.15;;;2.90;;
10565;SDS011;5331;48.148;16.326;2022-08-07T05:47:34;2.90;;;2.63;;
10565;SDS011;5331;48.148;16.326;2022-08-07T05:50:03;3.03;;;2.67;;
10565;SDS011;5331;48.148;16.326;2022-08-07T05:52:31;3.00;;;2.80;;
10565;SDS011;5331;48.148;16.326;2022-08-07T05:54:58;2.92;;;2.60;;
10565;SDS011;5331;48.148;16.326;2022-08-07T05:57:25;2.85;;;2.67;;
10565;SDS011;5331;48.148;16.326;2022-08-07T05:59:53;3.17;;;2.90;;
10565;SDS011;5331;48.148;16.326;2022-08-07T06:02:20;2.92;;;2.65;;
10565;SDS011;5331;48.148;16.326;2022-08-07T06:04:51;3.13;;;2.90;;
10565;SDS011;5331;48.148;16.326;2022-08-07T06:07:23;2.83;;;2.63;;
10565;SDS011;5331;48.148;16.326;2022-08-07T06:09:50;3.00;;;2.80;;
10565;SDS011;5331;48.148;16.326;2022-08-07T06:12:18;2.97;;;2.78;;
10565;SDS011;5331;48.148;16.326;2022-08-07T06:14:45;3.03;;;2.83;;
10565;SDS011;5331;48.148;16.326;2022-08-07T06:17:12;2.70;;;2.50;;
10565;SDS011;5331;48.148;16.326;2022-08-07T06:19:40;2.95;;;2.75;;
10565;SDS011;5331;48.148;16.326;2022-08-07T06:22:08;2.70;;;2.50;;
10565;SDS011;5331;48.148;16.326;2022-08-07T06:24:36;3.88;;;2.45;;
10565;SDS011;5331;48.148;16.326;2022-08-07T06:27:03;2.92;;;2.72;;
10565;SDS011;5331;48.148;16.326;2022-08-07T06:29:31;3.15;;;2.85;;
10565;SDS011;5331;48.148;16.326;2022-08-07T06:31:59;2.60;;;2.47;;
10565;SDS011;5331;48.148;16.326;2022-08-07T06:34:26;2.92;;;2.72;;
10565;SDS011;5331;48.148;16.326;2022-08-07T06:36:53;2.72;;;2.53;;
10565;SDS011;5331;48.148;16.326;2022-08-07T06:39:20;3.25;;;2.60;;
10565;SDS011;5331;48.148;16.326;2022-08-07T06:41:52;2.97;;;2.78;;
10565;SDS011;5331;48.148;16.326;2022-08-07T06:44:24;2.97;;;2.50;;
10565;SDS011;5331;48.148;16.326;2022-08-07T06:46:52;2.80;;;2.50;;
10565;SDS011;5331;48.148;16.326;2022-08-07T06:49:19;2.72;;;2.55;;
10565;SDS011;5331;48.148;16.326;2022-08-07T06:51:46;2.80;;;2.70;;
10565;SDS011;5331;48.148;16.326;2022-08-07T06:54:14;2.78;;;2.58;;
10565;SDS011;5331;48.148;16.326;2022-08-07T06:56:43;2.60;;;2.40;;
10565;SDS011;5331;48.148;16.326;2022-08-07T06:59:13;2.80;;;2.60;;
10565;SDS011;5331;48.148;16.326;2022-08-07T07:01:43;2.80;;;2.60;;
10565;SDS011;5331;48.148;16.326;2022-08-07T07:04:12;3.50;;;2.55;;
10565;SDS011;5331;48.148;16.326;2022-08-07T07:06:40;2.60;;;2.50;;
10565;SDS011;5331;48.148;16.326;2022-08-07T07:09:15;3.00;;;2.80;;
10565;SDS011;5331;48.148;16.326;2022-08-07T07:11:44;2.90;;;2.70;;
10565;SDS011;5331;48.148;16.326;2022-08-07T07:14:21;2.78;;;2.42;;
10565;SDS011;5331;48.148;16.326;2022-08-07T07:16:51;3.78;;;2.95;;
10565;SDS011;5331;48.148;16.326;2022-08-07T07:19:24;5.13;;;2.97;;
10565;SDS011;5331;48.148;16.326;2022-08-07T07:21:54;3.05;;;2.70;;
10565;SDS011;5331;48.148;16.326;2022-08-07T07:24:21;3.15;;;2.60;;
10565;SDS011;5331;48.148;16.326;2022-08-07T07:26:48;2.80;;;2.65;;
10565;SDS011;5331;48.148;16.326;2022-08-07T07:29:21;3.25;;;2.78;;
10565;SDS011;5331;48.148;16.326;2022-08-07T07:31:52;2.85;;;2.65;;
10565;SDS011;5331;48.148;16.326;2022-08-07T07:34:21;2.72;;;2.53;;
10565;SDS011;5331;48.148;16.326;2022-08-07T07:36:52;2.55;;;2.45;;
10565;SDS011;5331;48.148;16.326;2022-08-07T07:39:19;2.58;;;2.40;;
10565;SDS011;5331;48.148;16.326;2022-08-07T07:41:48;2.70;;;2.50;;
10565;SDS011;5331;48.148;16.326;2022-08-07T07:44:17;2.70;;;2.55;;
10565;SDS011;5331;48.148;16.326;2022-08-07T07:46:47;3.03;;;2.80;;
10565;SDS011;5331;48.148;16.326;2022-08-07T07:49:16;2.67;;;2.47;;
10565;SDS011;5331;48.148;16.326;2022-08-07T07:51:46;3.13;;;2.60;;
10565;SDS011;5331;48.148;16.326;2022-08-07T07:54:14;2.88;;;2.67;;
10565;SDS011;5331;48.148;16.326;2022-08-07T07:56:43;2.42;;;2.33;;
10565;SDS011;5331;48.148;16.326;2022-08-07T07:59:11;2.80;;;2.50;;
10565;SDS011;5331;48.148;16.326;2022-08-07T08:01:42;3.00;;;2.45;;
10565;SDS011;5331;48.148;16.326;2022-08-07T08:04:12;2.70;;;2.50;;
10565;SDS011;5331;48.148;16.326;2022-08-07T08:06:41;2.83;;;2.63;;
10565;SDS011;5331;48.148;16.326;2022-08-07T08:09:09;2.67;;;2.50;;
10565;SDS011;5331;48.148;16.326;2022-08-07T08:11:39;2.67;;;2.58;;
10565;SDS011;5331;48.148;16.326;2022-08-07T08:14:08;4.35;;;2.70;;
10565;SDS011;5331;48.148;16.326;2022-08-07T08:16:36;2.60;;;2.40;;
10565;SDS011;5331;48.148;16.326;2022-08-07T08:19:06;2.80;;;2.55;;
10565;SDS011;5331;48.148;16.326;2022-08-07T08:21:41;2.80;;;2.60;;
10565;SDS011;5331;48.148;16.326;2022-08-07T08:24:31;2.50;;;2.30;;
10565;SDS011;5331;48.148;16.326;2022-08-07T08:27:19;3.00;;;2.80;;
10565;SDS011;5331;48.148;16.326;2022-08-07T08:29:50;3.22;;;2.92;;
10565;SDS011;5331;48.148;16.326;2022-08-07T08:32:20;2.53;;;2.42;;
10565;SDS011;5331;48.148;16.326;2022-08-07T08:34:50;2.63;;;2.42;;
10565;SDS011;5331;48.148;16.326;2022-08-07T08:37:19;2.90;;;2.50;;
10565;SDS011;5331;48.148;16.326;2022-08-07T08:39:47;2.90;;;2.55;;
10565;SDS011;5331;48.148;16.326;2022-08-07T08:42:19;3.20;;;2.97;;
10565;SDS011;5331;48.148;16.326;2022-08-07T08:44:53;3.28;;;2.70;;
10565;SDS011;5331;48.148;16.326;2022-08-07T08:47:28;2.90;;;2.70;;
10565;SDS011;5331;48.148;16.326;2022-08-07T08:50:08;2.75;;;2.63;;
10565;SDS011;5331;48.148;16.326;2022-08-07T08:52:45;3.10;;;2.90;;
10565;SDS011;5331;48.148;16.326;2022-08-07T08:55:19;2.90;;;2.70;;
10565;SDS011;5331;48.148;16.326;2022-08-07T08:57:54;2.47;;;2.35;;
10565;SDS011;5331;48.148;16.326;2022-08-07T09:00:29;2.72;;;2.63;;
10565;SDS011;5331;48.148;16.326;2022-08-07T09:03:01;3.22;;;2.50;;
10565;SDS011;5331;48.148;16.326;2022-08-07T09:05:37;2.85;;;2.63;;
10565;SDS011;5331;48.148;16.326;2022-08-07T09:08:16;2.78;;;2.58;;
10565;SDS011;5331;48.148;16.326;2022-08-07T09:10:54;3.10;;;2.80;;
10565;SDS011;5331;48.148;16.326;2022-08-07T09:13:38;2.70;;;2.50;;
10565;SDS011;5331;48.148;16.326;2022-08-07T09:16:14;3.03;;;2.67;;
10565;SDS011;5331;48.148;16.326;2022-08-07T09:18:54;2.97;;;2.65;;
10565;SDS011;5331;48.148;16.326;2022-08-07T09:21:32;3.10;;;2.78;;
10565;SDS011;5331;48.148;16.326;2022-08-07T09:24:04;2.53;;;2.33;;
10565;SDS011;5331;48.148;16.326;2022-08-07T09:26:42;2.70;;;2.50;;
10565;SDS011;5331;48.148;16.326;2022-08-07T09:29:16;2.65;;;2.42;;
10565;SDS011;5331;48.148;16.326;2022-08-07T09:31:53;2.80;;;2.60;;
10565;SDS011;5331;48.148;16.326;2022-08-07T09:34:24;3.78;;;2.72;;
10565;SDS011;5331;48.148;16.326;2022-08-07T09:36:58;3.30;;;2.72;;
10565;SDS011;5331;48.148;16.326;2022-08-07T09:39:34;2.80;;;2.60;;
10565;SDS011;5331;48.148;16.326;2022-08-07T09:42:10;3.35;;;2.90;;
10565;SDS011;5331;48.148;16.326;2022-08-07T09:44:55;2.50;;;2.30;;
10565;SDS011;5331;48.148;16.326;2022-08-07T09:47:32;2.60;;;2.40;;
10565;SDS011;5331;48.148;16.326;2022-08-07T09:50:09;2.55;;;2.30;;
10565;SDS011;5331;48.148;16.326;2022-08-07T09:52:43;4.38;;;2.60;;
10565;SDS011;5331;48.148;16.326;2022-08-07T09:55:15;3.58;;;2.63;;
10565;SDS011;5331;48.148;16.326;2022-08-07T09:57:54;3.33;;;2.78;;
10565;SDS011;5331;48.148;16.326;2022-08-07T10:00:54;2.90;;;2.70;;
10565;SDS011;5331;48.148;16.326;2022-08-07T10:03:40;5.13;;;4.72;;
10565;SDS011;5331;48.148;16.326;2022-08-07T10:06:38;4.53;;;3.10;;
10565;SDS011;5331;48.148;16.326;2022-08-07T10:09:20;3.03;;;2.78;;
10565;SDS011;5331;48.148;16.326;2022-08-07T10:12:11;2.50;;;2.40;;
10565;SDS011;5331;48.148;16.326;2022-08-07T10:17:58;2.88;;;2.67;;
10565;SDS011;5331;48.148;16.326;2022-08-07T10:20:52;3.53;;;2.95;;
10565;SDS011;5331;48.148;16.326;2022-08-07T10:23:39;2.67;;;2.47;;
10565;SDS011;5331;48.148;16.326;2022-08-07T10:26:20;3.10;;;2.90;;
10565;SDS011;5331;48.148;16.326;2022-08-07T10:29:01;3.05;;;2.70;;
10565;SDS011;5331;48.148;16.326;2022-08-07T10:31:54;3.13;;;2.72;;
10565;SDS011;5331;48.148;16.326;2022-08-07T10:34:39;2.65;;;2.55;;
10565;SDS011;5331;48.148;16.326;2022-08-07T10:37:22;3.38;;;2.92;;
10565;SDS011;5331;48.148;16.326;2022-08-07T10:40:02;3.10;;;2.90;;
10565;SDS011;5331;48.148;16.326;2022-08-07T10:42:37;2.95;;;2.70;;
10565;SDS011;5331;48.148;16.326;2022-08-07T10:45:16;3.80;;;3.03;;
10565;SDS011;5331;48.148;16.326;2022-08-07T10:47:46;2.72;;;2.53;;
10565;SDS011;5331;48.148;16.326;2022-08-07T10:50:23;3.00;;;2.60;;
10565;SDS011;5331;48.148;16.326;2022-08-07T10:53:06;3.17;;;2.88;;
10565;SDS011;5331;48.148;16.326;2022-08-07T10:55:40;2.70;;;2.50;;
10565;SDS011;5331;48.148;16.326;2022-08-07T10:58:19;2.90;;;2.70;;
10565;SDS011;5331;48.148;16.326;2022-08-07T11:01:06;3.00;;;2.80;;
10565;SDS011;5331;48.148;16.326;2022-08-07T11:03:54;2.72;;;2.47;;
10565;SDS011;5331;48.148;16.326;2022-08-07T11:06:27;2.60;;;2.50;;
10565;SDS011;5331;48.148;16.326;2022-08-07T11:09:03;2.95;;;2.67;;
10565;SDS011;5331;48.148;16.326;2022-08-07T11:11:38;3.00;;;2.80;;
10565;SDS011;5331;48.148;16.326;2022-08-07T11:14:12;3.00;;;2.70;;
10565;SDS011;5331;48.148;16.326;2022-08-07T11:16:47;2.75;;;2.60;;
10565;SDS011;5331;48.148;16.326;2022-08-07T11:19:23;2.67;;;2.40;;
10565;SDS011;5331;48.148;16.326;2022-08-07T11:22:07;3.05;;;2.40;;
10565;SDS011;5331;48.148;16.326;2022-08-07T11:24:38;2.50;;;2.30;;
10565;SDS011;5331;48.148;16.326;2022-08-07T11:27:18;4.03;;;2.25;;
10565;SDS011;5331;48.148;16.326;2022-08-07T11:29:51;3.58;;;2.50;;
10565;SDS011;5331;48.148;16.326;2022-08-07T11:32:29;2.75;;;2.55;;
10565;SDS011;5331;48.148;16.326;2022-08-07T11:35:02;2.60;;;2.40;;
10565;SDS011;5331;48.148;16.326;2022-08-07T11:37:52;2.53;;;2.22;;
10565;SDS011;5331;48.148;16.326;2022-08-07T11:40:30;2.67;;;2.47;;
10565;SDS011;5331;48.148;16.326;2022-08-07T11:43:05;2.45;;;2.28;;
10565;SDS011;5331;48.148;16.326;2022-08-07T11:45:47;2.90;;;2.70;;
10565;SDS011;5331;48.148;16.326;2022-08-07T11:51:37;4.45;;;2.75;;
10565;SDS011;5331;48.148;16.326;2022-08-07T11:54:22;6.07;;;2.50;;
10565;SDS011;5331;48.148;16.326;2022-08-07T11:57:12;2.95;;;2.50;;
10565;SDS011;5331;48.148;16.326;2022-08-07T11:59:59;2.60;;;2.40;;
10565;SDS011;5331;48.148;16.326;2022-08-07T12:05:38;2.35;;;2.20;;
10565;SDS011;5331;48.148;16.326;2022-08-07T12:08:13;3.78;;;3.40;;
10565;SDS011;5331;48.148;16.326;2022-08-07T12:10:44;6.80;;;2.90;;
10565;SDS011;5331;48.148;16.326;2022-08-07T12:13:15;2.50;;;2.30;;
10565;SDS011;5331;48.148;16.326;2022-08-07T12:15:49;3.95;;;2.60;;
10565;SDS011;5331;48.148;16.326;2022-08-07T12:18:21;2.38;;;2.17;;
10565;SDS011;5331;48.148;16.326;2022-08-07T12:20:56;2.83;;;2.25;;
10565;SDS011;5331;48.148;16.326;2022-08-07T12:23:41;2.58;;;2.35;;
10565;SDS011;5331;48.148;16.326;2022-08-07T12:26:16;2.63;;;2.42;;
10565;SDS011;5331;48.148;16.326;2022-08-07T12:28:54;2.28;;;2.10;;
10565;SDS011;5331;48.148;16.326;2022-08-07T12:31:27;2.30;;;2.10;;
10565;SDS011;5331;48.148;16.326;2022-08-07T12:34:01;2.40;;;2.20;;
10565;SDS011;5331;48.148;16.326;2022-08-07T12:36:29;2.45;;;2.35;;
10565;SDS011;5331;48.148;16.326;2022-08-07T12:39:02;2.30;;;2.20;;
10565;SDS011;5331;48.148;16.326;2022-08-07T12:41:31;1.95;;;1.85;;
10565;SDS011;5331;48.148;16.326;2022-08-07T12:44:01;2.30;;;2.20;;
10565;SDS011;5331;48.148;16.326;2022-08-07T12:46:34;2.50;;;2.30;;
10565;SDS011;5331;48.148;16.326;2022-08-07T12:49:14;3.47;;;2.13;;
10565;SDS011;5331;48.148;16.326;2022-08-07T12:51:49;2.35;;;2.25;;
10565;SDS011;5331;48.148;16.326;2022-08-07T12:54:30;3.03;;;2.38;;
10565;SDS011;5331;48.148;16.326;2022-08-07T12:57:04;2.63;;;2.42;;
10565;SDS011;5331;48.148;16.326;2022-08-07T12:59:32;2.38;;;2.17;;
10565;SDS011;5331;48.148;16.326;2022-08-07T13:02:05;2.30;;;2.10;;
10565;SDS011;5331;48.148;16.326;2022-08-07T13:05:08;2.22;;;2.13;;
10565;SDS011;5331;48.148;16.326;2022-08-07T13:07:57;3.08;;;2.13;;
10565;SDS011;5331;48.148;16.326;2022-08-07T13:10:37;2.47;;;2.28;;
10565;SDS011;5331;48.148;16.326;2022-08-07T13:16:16;2.50;;;2.00;;
10565;SDS011;5331;48.148;16.326;2022-08-07T13:18:52;2.30;;;2.13;;
10565;SDS011;5331;48.148;16.326;2022-08-07T13:21:25;2.15;;;2.05;;
10565;SDS011;5331;48.148;16.326;2022-08-07T13:23:58;2.42;;;2.22;;
10565;SDS011;5331;48.148;16.326;2022-08-07T13:26:33;2.75;;;2.25;;
10565;SDS011;5331;48.148;16.326;2022-08-07T13:29:07;2.63;;;2.50;;
10565;SDS011;5331;48.148;16.326;2022-08-07T13:31:42;2.45;;;2.33;;
10565;SDS011;5331;48.148;16.326;2022-08-07T13:34:15;2.25;;;2.15;;
10565;SDS011;5331;48.148;16.326;2022-08-07T13:36:50;3.63;;;2.63;;
10565;SDS011;5331;48.148;16.326;2022-08-07T13:39:25;2.47;;;2.33;;
10565;SDS011;5331;48.148;16.326;2022-08-07T13:41:59;2.63;;;2.42;;
10565;SDS011;5331;48.148;16.326;2022-08-07T13:44:27;2.30;;;2.20;;
10565;SDS011;5331;48.148;16.326;2022-08-07T13:46:58;2.65;;;2.33;;
10565;SDS011;5331;48.148;16.326;2022-08-07T13:49:27;2.53;;;2.20;;
10565;SDS011;5331;48.148;16.326;2022-08-07T13:52:02;2.60;;;2.50;;
10565;SDS011;5331;48.148;16.326;2022-08-07T13:54:33;2.50;;;2.40;;
10565;SDS011;5331;48.148;16.326;2022-08-07T13:57:04;2.83;;;2.63;;
10565;SDS011;5331;48.148;16.326;2022-08-07T13:59:36;3.33;;;2.67;;
10565;SDS011;5331;48.148;16.326;2022-08-07T14:02:08;3.35;;;2.63;;
10565;SDS011;5331;48.148;16.326;2022-08-07T14:04:43;2.85;;;2.72;;
10565;SDS011;5331;48.148;16.326;2022-08-07T14:07:13;2.83;;;2.60;;
10565;SDS011;5331;48.148;16.326;2022-08-07T14:09:41;2.63;;;2.42;;
10565;SDS011;5331;48.148;16.326;2022-08-07T14:12:12;2.67;;;2.47;;
10565;SDS011;5331;48.148;16.326;2022-08-07T14:14:49;2.90;;;2.70;;
10565;SDS011;5331;48.148;16.326;2022-08-07T14:17:19;2.60;;;2.50;;
10565;SDS011;5331;48.148;16.326;2022-08-07T14:19:50;2.47;;;2.38;;
10565;SDS011;5331;48.148;16.326;2022-08-07T14:22:21;2.90;;;2.70;;
10565;SDS011;5331;48.148;16.326;2022-08-07T14:24:53;2.65;;;2.45;;
10565;SDS011;5331;48.148;16.326;2022-08-07T14:27:28;2.63;;;2.53;;
10565;SDS011;5331;48.148;16.326;2022-08-07T14:30:02;2.55;;;2.45;;
10565;SDS011;5331;48.148;16.326;2022-08-07T14:32:35;3.05;;;2.47;;
10565;SDS011;5331;48.148;16.326;2022-08-07T14:35:07;2.60;;;2.50;;
10565;SDS011;5331;48.148;16.326;2022-08-07T14:37:35;2.50;;;2.30;;
10565;SDS011;5331;48.148;16.326;2022-08-07T14:40:04;2.58;;;2.40;;
10565;SDS011;5331;48.148;16.326;2022-08-07T14:42:35;2.38;;;2.28;;
10565;SDS011;5331;48.148;16.326;2022-08-07T14:45:03;2.55;;;2.40;;
10565;SDS011;5331;48.148;16.326;2022-08-07T14:47:31;2.45;;;2.30;;
10565;SDS011;5331;48.148;16.326;2022-08-07T14:50:03;2.70;;;2.53;;
10565;SDS011;5331;48.148;16.326;2022-08-07T14:52:31;2.45;;;2.33;;
10565;SDS011;5331;48.148;16.326;2022-08-07T14:55:01;2.60;;;2.40;;
10565;SDS011;5331;48.148;16.326;2022-08-07T14:57:29;2.80;;;2.50;;
10565;SDS011;5331;48.148;16.326;2022-08-07T15:00:00;2.70;;;2.50;;
10565;SDS011;5331;48.148;16.326;2022-08-07T15:02:29;2.47;;;2.30;;
10565;SDS011;5331;48.148;16.326;2022-08-07T15:04:57;2.70;;;2.50;;
10565;SDS011;5331;48.148;16.326;2022-08-07T15:07:24;2.88;;;2.60;;
10565;SDS011;5331;48.148;16.326;2022-08-07T15:09:54;2.78;;;2.58;;
10565;SDS011;5331;48.148;16.326;2022-08-07T15:12:23;2.92;;;2.60;;
10565;SDS011;5331;48.148;16.326;2022-08-07T15:14:55;2.70;;;2.40;;
10565;SDS011;5331;48.148;16.326;2022-08-07T15:17:29;3.03;;;2.83;;
10565;SDS011;5331;48.148;16.326;2022-08-07T15:20:00;2.80;;;2.60;;
10565;SDS011;5331;48.148;16.326;2022-08-07T15:22:31;3.70;;;3.03;;
10565;SDS011;5331;48.148;16.326;2022-08-07T15:25:08;3.22;;;2.75;;
10565;SDS011;5331;48.148;16.326;2022-08-07T15:27:40;2.80;;;2.60;;
10565;SDS011;5331;48.148;16.326;2022-08-07T15:30:09;2.50;;;2.40;;